Terminal Aerodrome Forecast
Issued by NWS Cleveland, OH

Home | Current Version | Previous Version | Graphics & Text | Print | Product List | Glossary On
Versions: 1 2 3 4 5 6 7 8 9 10 11 12 13 14 15 16 17 18 19 20 21 22 23 24
000
FTUS41 KCLE 201120
TAFCLE
TAF
KCLE 201120Z 2012/2118 21005KT P6SM SCT200
     FM201800 24010KT P6SM VCTS SCT035CB BKN080
     FM210000 26008KT P6SM -SHRA VCTS BKN050CB
     FM210300 26007KT P6SM BKN120
     FM210600 29006KT 5SM BR SCT120
     FM211200 35006KT 4SM BR SCT025
     FM211400 35005KT P6SM SCT120=

USA.gov is the U.S. government's official web portal to all federal, state and local government web resources and services.